• Join FlightAware (Why Join?)
  • Login
  • US Flag 
09:59PM EDT


 

Airport Tracker/Info


-or-


 

Live Flight TrackerFlight Track Log ✈ ASQ5750 ✈ 25-Jun-2013 ✈ KORF - KIAD

Flight Track Log - Related Links

Times and Time Zones

All times are in EDT time to prevent confusion due to time zone crossing. See the ASQ5750 flight status page for this flight to view local times or setup timezone preferences in your user account.

Time Position Orientation Groundspeed Altitude Reporting Facility
EDT Latitude Longitude Course Direction KTS MPH feet Rate Location/Type
12:14PM 36.8806 -76.2150 300° West 138 159 800  Level Washington Center
12:15PM 36.8364 -76.2797 230° Southwest 201 231 3,600 1,800 Climbing Washington Center
12:16PM 37.0079 -76.4412 321° Northwest  Level FlightAware Approximate
12:17PM 37.0495 -76.5220 300° West  Level FlightAware Approximate
12:17PM 36.8814 -76.3969 296° West 244 281 6,700  Level Washington Center
12:18PM 37.0878 -76.6064 300° West  Level FlightAware Approximate
12:18PM 36.9289 -76.4675 310° West 263 303 9,300  Level Washington Center
12:19PM 37.1261 -76.6907 300° West  Level FlightAware Approximate
12:19PM 36.9764 -76.5461 307° West 270 311 10,800  Level Washington Center
12:20PM 37.0319 -76.6353 308° West 298 343 11,900 1,260 Climbing Washington Center
12:21PM 37.0936 -76.7325 309° West 334 384 13,400 1,320 Climbing Washington Center
12:22PM 37.1511 -76.8294 307° West 347 399 14,600 1,200 Climbing Washington Center
12:23PM 37.2147 -76.9322 308° West 358 412 15,800 660 Climbing Washington Center
12:24PM 37.2883 -77.0536 307° West 391 450 16,000 60 Climbing Washington Center
12:25PM 37.3581 -77.1544 311° West 391 450 16,000  Level Washington Center
12:26PM 37.4300 -77.2342 319° Northwest 385 443 16,000 -180 Level Washington Center
12:27PM 37.5100 -77.3222 319° Northwest 380 437 15,700 -360 Descending Washington Center
12:29PM 37.6839 -77.4208 336° Northwest 346 398 15,000 -420 Descending Washington Center
12:30PM 37.7664 -77.4675 336° Northwest 334 384 14,500 -540 Descending Washington Center
12:31PM 37.8408 -77.5192 331° Northwest 320 368 14,000 -300 Descending Washington Center
12:32PM 37.9022 -77.5839 320° Northwest 305 351 14,000  Level Washington Center
12:33PM 37.9839 -77.5625 12° North 276 318 14,000  Level Washington Center
12:34PM 38.0617 -77.5222 22° Northeast 271 312 14,000 -1,080 Level Washington Center
12:35PM 38.1419 -77.4742 25° Northeast 286 329 11,900 -2,040 Descending Washington Center
12:36PM 38.2261 -77.4233 25° Northeast 300 345 10,000 -1,440 Descending Washington Center
12:37PM 38.2803 -77.4272 357° North 266 306 9,100 -1,380 Descending Washington Center
12:38PM 38.3525 -77.4689 336° Northwest 245 282 7,300 -1,500 Descending Washington Center
12:39PM 38.4275 -77.4733 357° North 251 289 6,200 -1,560 Descending Washington Center
12:40PM 38.5025 -77.4728 360° North 261 300 4,300 -1,140 Descending Washington Center
12:41PM 38.5714 -77.4692 North 255 293 4,000 -660 Descending Washington Center
12:42PM 38.6500 -77.4667 North 230 265 3,000 -540 Descending Potomac TRACON
12:43PM 38.7000 -77.4667 360° North 185 213 3,000  Level Potomac TRACON
12:44PM 38.7500 -77.4667 360° North 190 219 3,000  Level Potomac TRACON